Terminal Aerodrome Forecast
Issued by NWS

Home | Current Version | Previous Version | Text Only | Print | Product List | Glossary On
Versions: 1 2 3 4 5 6 7 8 9 10 11 12
000
FTUS43 KBIS 052336
TAFMOT
TAF
KMOT 052336Z 0600/0624 15019KT P6SM SCT100
     FM060200 13012KT P6SM SCT100
     FM061100 12010KT P6SM VCSH BKN025 OVC045
     FM061500 13011KT 5SM -SHRA BR OVC018=

USA.gov is the U.S. government's official web portal to all federal, state and local government web resources and services.